Time,TemperatureF,DewpointF,PressureIn,WindDirection,WindDirectionDegrees,WindSpeedMPH,WindSpeedGustMPH,Humidity,HourlyPrecipIn,Conditions,Clouds,dailyrainin,SoftwareType,DateUTC
2013-05-12 00:01:00,43.0,39.7,29.23,WNW,292,9.2,9.2,88,0.00,RA,,0.00,WeatherDisplay:10.37,2013-05-11 23:01:00,
2013-05-12 00:06:00,43.0,39.7,29.23,WSW,248,5.8,5.9,88,0.00,RA,,0.00,WeatherDisplay:10.37,2013-05-11 23:06:00,
2013-05-12 00:11:00,42.6,39.3,29.24,SW,225,8.1,8.1,88,0.00,CLR,,0.00,WeatherDisplay:10.37,2013-05-11 23:11:00,
2013-05-12 00:16:00,42.6,39.3,29.24,SW,225,3.5,3.8,88,0.00,CLR,,0.00,WeatherDisplay:10.37,2013-05-11 23:16:00,
2013-05-12 00:21:00,42.6,39.3,29.24,SW,225,3.5,3.5,88,0.00,CLR,,0.00,WeatherDisplay:10.37,2013-05-11 23:21:00,
2013-05-12 00:26:00,42.4,39.1,29.24,SSW,202,6.9,7.2,88,0.00,CLR,,0.00,WeatherDisplay:10.37,2013-05-11 23:26:00,
2013-05-12 00:31:00,42.4,39.1,29.25,SSW,202,3.5,3.5,88,0.00,CLR,,0.00,WeatherDisplay:10.37,2013-05-11 23:31:00,
2013-05-12 00:36:00,42.4,39.1,29.25,SSW,202,3.5,6.8,88,0.00,CLR,,0.00,WeatherDisplay:10.37,2013-05-11 23:36:00,
2013-05-12 00:41:00,42.1,39.1,29.25,WSW,248,5.8,5.8,89,0.00,CLR,,0.00,WeatherDisplay:10.37,2013-05-11 23:41:00,
2013-05-12 00:46:00,42.1,39.1,29.25,WSW,248,3.5,3.6,89,0.00,CLR,,0.00,WeatherDisplay:10.37,2013-05-11 23:46:00,
2013-05-12 00:51:00,42.1,39.1,29.25,West,270,9.2,9.2,89,0.00,CLR,,0.00,WeatherDisplay:10.37,2013-05-11 23:51:00,
2013-05-12 00:56:00,42.1,39.1,29.25,West,270,10.4,10.4,89,0.00,CLR,,0.00,WeatherDisplay:10.37,2013-05-11 23:56:00,
2013-05-12 01:01:00,41.9,38.9,29.25,SSW,202,8.1,8.1,89,0.00,CLR,,0.00,WeatherDisplay:10.37,2013-05-12 00:01:00,
2013-05-12 01:06:00,41.9,38.9,29.25,WSW,248,6.9,7.9,89,0.00,CLR,,0.00,WeatherDisplay:10.37,2013-05-12 00:06:00,
2013-05-12 01:11:00,41.9,38.9,29.25,WSW,248,5.8,6.8,89,0.00,CLR,,0.00,WeatherDisplay:10.37,2013-05-12 00:11:00,
2013-05-12 01:16:00,41.7,38.7,29.25,West,270,3.5,4.0,89,0.00,CLR,,0.00,WeatherDisplay:10.37,2013-05-12 00:16:00,
2013-05-12 01:21:00,41.9,38.9,29.26,WSW,248,6.9,6.9,89,0.00,CLR,,0.00,WeatherDisplay:10.37,2013-05-12 00:21:00,
2013-05-12 01:26:00,42.1,39.1,29.25,WSW,248,4.6,4.6,89,0.00,CLR,,0.00,WeatherDisplay:10.37,2013-05-12 00:26:00,
2013-05-12 01:31:00,42.4,39.4,29.25,SSE,158,4.6,4.6,89,0.00,CLR,,0.00,WeatherDisplay:10.37,2013-05-12 00:31:00,
2013-05-12 01:36:00,42.4,39.4,29.26,West,270,2.3,2.8,89,0.00,CLR,,0.00,WeatherDisplay:10.37,2013-05-12 00:36:00,
2013-05-12 01:41:00,42.6,39.9,29.26,West,270,9.2,9.2,90,0.00,CLR,,0.00,WeatherDisplay:10.37,2013-05-12 00:41:00,
2013-05-12 01:46:00,42.6,39.9,29.26,West,270,11.5,11.5,90,0.00,CLR,,0.00,WeatherDisplay:10.37,2013-05-12 00:46:00,
2013-05-12 01:51:00,43.0,40.2,29.26,WSW,248,6.9,6.9,90,0.00,CLR,,0.00,WeatherDisplay:10.37,2013-05-12 00:51:00,
2013-05-12 01:56:00,43.0,40.2,29.26,SW,225,3.5,4.6,90,0.00,CLR,,0.00,WeatherDisplay:10.37,2013-05-12 00:56:00,
2013-05-12 02:01:00,43.0,40.2,29.26,South,180,4.6,4.6,90,0.00,CLR,,0.00,WeatherDisplay:10.37,2013-05-12 01:01:00,
2013-05-12 02:06:00,43.2,40.4,29.26,SW,225,3.5,7.7,90,0.00,CLR,,0.00,WeatherDisplay:10.37,2013-05-12 01:06:00,
2013-05-12 02:11:00,43.3,40.6,29.26,NW,315,2.3,2.5,90,0.00,CLR,,0.00,WeatherDisplay:10.37,2013-05-12 01:11:00,
2013-05-12 02:16:00,43.3,40.6,29.26,WSW,248,11.5,11.6,90,0.00,CLR,,0.00,WeatherDisplay:10.37,2013-05-12 01:16:00,
2013-05-12 02:21:00,43.5,40.8,29.26,WSW,248,1.2,5.2,90,0.00,CLR,,0.00,WeatherDisplay:10.37,2013-05-12 01:21:00,
2013-05-12 02:26:00,43.5,40.8,29.26,WSW,248,5.8,5.8,90,0.00,CLR,,0.00,WeatherDisplay:10.37,2013-05-12 01:26:00,
2013-05-12 02:31:00,43.5,40.8,29.26,West,270,11.5,11.5,90,0.00,CLR,,0.00,WeatherDisplay:10.37,2013-05-12 01:31:00,
2013-05-12 02:36:00,43.5,40.8,29.26,West,270,8.1,8.1,90,0.00,CLR,,0.00,WeatherDisplay:10.37,2013-05-12 01:36:00,
2013-05-12 02:41:00,43.3,40.6,29.27,WSW,248,9.2,9.2,90,0.00,CLR,,0.00,WeatherDisplay:10.37,2013-05-12 01:41:00,
2013-05-12 02:46:00,43.5,40.8,29.27,WSW,248,3.5,3.5,90,0.00,CLR,,0.00,WeatherDisplay:10.37,2013-05-12 01:46:00,
2013-05-12 02:51:00,43.5,40.8,29.27,WSW,248,6.9,6.9,90,0.00,CLR,,0.00,WeatherDisplay:10.37,2013-05-12 01:51:00,
2013-05-12 02:56:00,43.5,40.8,29.27,SSW,202,4.6,4.6,90,0.00,CLR,,0.00,WeatherDisplay:10.37,2013-05-12 01:56:00,
2013-05-12 03:01:00,43.5,40.8,29.27,SW,225,1.2,4.6,90,0.00,CLR,,0.00,WeatherDisplay:10.37,2013-05-12 02:01:00,
2013-05-12 03:06:00,43.5,40.8,29.26,West,270,12.7,12.7,90,0.00,CLR,,0.00,WeatherDisplay:10.37,2013-05-12 02:06:00,
2013-05-12 03:11:00,43.7,40.7,29.27,East,90,4.6,4.6,89,0.00,CLR,,0.00,WeatherDisplay:10.37,2013-05-12 02:11:00,
2013-05-12 03:16:00,43.7,41.0,29.27,SW,225,10.4,0.0,90,0.00,CLR,,0.00,WeatherDisplay:10.37,2013-05-12 02:16:00,
2013-05-12 03:21:00,43.7,41.0,29.27,SW,225,6.9,6.9,90,0.00,CLR,,0.00,WeatherDisplay:10.37,2013-05-12 02:21:00,
2013-05-12 03:26:00,43.7,41.0,29.27,West,270,3.5,3.7,90,0.00,CLR,,0.00,WeatherDisplay:10.37,2013-05-12 02:26:00,
2013-05-12 03:31:00,43.7,41.0,29.27,SW,225,6.9,6.9,90,0.00,CLR,,0.00,WeatherDisplay:10.37,2013-05-12 02:31:00,
2013-05-12 03:36:00,43.7,41.0,29.26,West,270,8.1,8.1,90,0.00,CLR,,0.00,WeatherDisplay:10.37,2013-05-12 02:36:00,
2013-05-12 03:41:00,43.7,41.0,29.27,WSW,248,9.2,9.3,90,0.00,CLR,,0.00,WeatherDisplay:10.37,2013-05-12 02:41:00,
2013-05-12 03:46:00,43.7,41.0,29.27,WSW,248,4.6,8.0,90,0.00,CLR,,0.00,WeatherDisplay:10.37,2013-05-12 02:46:00,
2013-05-12 03:51:00,43.7,41.0,29.26,NW,315,5.8,5.8,90,0.02,RA,,0.02,WeatherDisplay:10.37,2013-05-12 02:51:00,
2013-05-12 03:56:00,43.7,40.7,29.26,West,270,8.1,8.1,89,0.02,RA,,0.02,WeatherDisplay:10.37,2013-05-12 02:56:00,
2013-05-12 04:01:00,43.5,40.5,29.27,SSW,202,2.3,2.3,89,0.02,CLR,,0.02,WeatherDisplay:10.37,2013-05-12 03:01:00,
2013-05-12 04:06:00,43.5,40.5,29.27,SSW,202,8.1,8.1,89,0.02,CLR,,0.02,WeatherDisplay:10.37,2013-05-12 03:06:00,
2013-05-12 04:11:00,43.5,40.5,29.26,SW,225,4.6,6.4,89,0.02,CLR,,0.02,WeatherDisplay:10.37,2013-05-12 03:11:00,
2013-05-12 04:16:00,43.5,40.5,29.26,WSW,248,3.5,3.8,89,0.02,CLR,,0.02,WeatherDisplay:10.37,2013-05-12 03:16:00,
2013-05-12 04:21:00,43.5,40.5,29.26,West,270,6.9,6.9,89,0.02,CLR,,0.02,WeatherDisplay:10.37,2013-05-12 03:21:00,
2013-05-12 04:26:00,43.5,40.5,29.26,SSW,202,2.3,3.3,89,0.02,CLR,,0.02,WeatherDisplay:10.37,2013-05-12 03:26:00,
2013-05-12 04:31:00,43.5,40.5,29.26,SW,225,4.6,4.7,89,0.02,CLR,,0.02,WeatherDisplay:10.37,2013-05-12 03:31:00,
2013-05-12 04:36:00,43.5,40.5,29.26,WSW,248,5.8,6.3,89,0.02,CLR,,0.02,WeatherDisplay:10.37,2013-05-12 03:36:00,
2013-05-12 04:41:00,43.5,40.5,29.27,WSW,248,10.4,10.4,89,0.02,CLR,,0.02,WeatherDisplay:10.37,2013-05-12 03:41:00,
2013-05-12 04:46:00,43.5,40.5,29.27,SW,225,16.1,16.1,89,0.02,CLR,,0.02,WeatherDisplay:10.37,2013-05-12 03:46:00,
2013-05-12 04:51:00,43.3,40.3,29.26,West,270,5.8,5.9,89,0.00,CLR,,0.02,WeatherDisplay:10.37,2013-05-12 03:51:00,
2013-05-12 04:56:00,43.3,40.3,29.26,SE,135,6.9,8.1,89,0.00,CLR,,0.02,WeatherDisplay:10.37,2013-05-12 03:56:00,
2013-05-12 05:01:00,43.3,40.3,29.26,SW,225,8.1,12.7,89,0.00,CLR,,0.02,WeatherDisplay:10.37,2013-05-12 04:01:00,
2013-05-12 05:06:00,43.2,40.1,29.26,SSW,202,12.7,13.1,89,0.00,CLR,,0.02,WeatherDisplay:10.37,2013-05-12 04:06:00,
2013-05-12 05:11:00,43.0,40.0,29.27,WSW,248,10.4,10.4,89,0.00,CLR,,0.02,WeatherDisplay:10.37,2013-05-12 04:11:00,
2013-05-12 05:16:00,43.0,40.0,29.26,WSW,248,16.1,16.1,89,0.00,CLR,,0.02,WeatherDisplay:10.37,2013-05-12 04:16:00,
2013-05-12 05:21:00,43.0,40.0,29.27,WSW,248,17.3,17.3,89,0.00,CLR,,0.02,WeatherDisplay:10.37,2013-05-12 04:21:00,
2013-05-12 05:26:00,43.0,40.0,29.27,West,270,6.9,8.3,89,0.00,CLR,,0.02,WeatherDisplay:10.37,2013-05-12 04:26:00,
2013-05-12 05:31:00,43.0,40.0,29.27,SW,225,10.4,10.5,89,0.00,CLR,,0.02,WeatherDisplay:10.37,2013-05-12 04:31:00,
2013-05-12 05:36:00,43.0,40.0,29.27,SSW,202,5.8,9.4,89,0.00,CLR,,0.02,WeatherDisplay:10.37,2013-05-12 04:36:00,
2013-05-12 05:41:00,43.0,40.0,29.27,WSW,248,15.0,15.0,89,0.00,CLR,,0.02,WeatherDisplay:10.37,2013-05-12 04:41:00,
2013-05-12 05:46:00,43.0,40.0,29.27,East,90,3.5,16.3,89,0.00,CLR,,0.02,WeatherDisplay:10.37,2013-05-12 04:46:00,
2013-05-12 05:51:00,43.0,40.0,29.27,West,270,11.5,11.6,89,0.00,CLR,,0.02,WeatherDisplay:10.37,2013-05-12 04:51:00,
2013-05-12 05:56:00,43.2,40.1,29.28,WSW,248,6.9,6.9,89,0.00,CLR,,0.02,WeatherDisplay:10.37,2013-05-12 04:56:00,
2013-05-12 06:01:00,43.3,40.3,29.28,West,270,5.8,12.4,89,0.00,CLR,,0.02,WeatherDisplay:10.37,2013-05-12 05:01:00,
2013-05-12 06:06:00,43.3,40.3,29.28,WSW,248,4.6,4.6,89,0.00,CLR,,0.02,WeatherDisplay:10.37,2013-05-12 05:06:00,
2013-05-12 06:11:00,43.3,40.3,29.28,SSW,202,5.8,9.6,89,0.00,CLR,,0.02,WeatherDisplay:10.37,2013-05-12 05:11:00,
2013-05-12 06:16:00,43.5,40.5,29.28,West,270,4.6,4.6,89,0.00,CLR,,0.02,WeatherDisplay:10.37,2013-05-12 05:16:00,
2013-05-12 06:21:00,43.5,40.5,29.28,South,180,3.5,3.5,89,0.00,CLR,,0.02,WeatherDisplay:10.37,2013-05-12 05:21:00,
2013-05-12 06:26:00,43.5,40.5,29.28,SW,225,4.6,4.6,89,0.00,CLR,,0.02,WeatherDisplay:10.37,2013-05-12 05:26:00,
2013-05-12 06:31:00,43.5,40.5,29.28,West,270,5.8,5.8,89,0.00,CLR,,0.02,WeatherDisplay:10.37,2013-05-12 05:31:00,
2013-05-12 06:36:00,43.7,40.4,29.28,WSW,248,5.8,5.8,88,0.00,CLR,,0.02,WeatherDisplay:10.37,2013-05-12 05:36:00,
2013-05-12 06:41:00,43.5,40.2,29.28,NW,315,5.8,5.8,88,0.00,CLR,,0.02,WeatherDisplay:10.37,2013-05-12 05:41:00,
2013-05-12 06:46:00,43.3,40.0,29.28,SW,225,11.5,11.5,88,0.00,CLR,,0.02,WeatherDisplay:10.37,2013-05-12 05:46:00,
2013-05-12 06:51:00,43.2,39.8,29.28,WSW,248,8.1,8.1,88,0.00,CLR,,0.02,WeatherDisplay:10.37,2013-05-12 05:51:00,
2013-05-12 06:56:00,43.2,39.8,29.28,WSW,248,5.8,5.8,88,0.00,CLR,,0.02,WeatherDisplay:10.37,2013-05-12 05:56:00,
2013-05-12 07:01:00,43.2,39.8,29.28,West,270,8.1,8.2,88,0.00,CLR,,0.02,WeatherDisplay:10.37,2013-05-12 06:01:00,
2013-05-12 07:06:00,43.3,40.0,29.28,SSW,202,10.4,10.4,88,0.00,CLR,,0.02,WeatherDisplay:10.37,2013-05-12 06:06:00,
2013-05-12 07:11:00,43.5,40.2,29.29,West,270,5.8,5.8,88,0.00,CLR,,0.02,WeatherDisplay:10.37,2013-05-12 06:11:00,
2013-05-12 07:16:00,43.5,40.2,29.29,WSW,248,8.1,8.1,88,0.00,CLR,,0.02,WeatherDisplay:10.37,2013-05-12 06:16:00,
2013-05-12 07:21:00,43.9,40.6,29.28,SW,225,6.9,6.9,88,0.00,CLR,,0.02,WeatherDisplay:10.37,2013-05-12 06:21:00,
2013-05-12 07:26:00,43.9,40.6,29.28,SSW,202,3.5,3.5,88,0.00,CLR,,0.02,WeatherDisplay:10.37,2013-05-12 06:26:00,
2013-05-12 07:31:00,44.4,40.8,29.28,NW,315,9.2,9.2,87,0.00,CLR,,0.02,WeatherDisplay:10.37,2013-05-12 06:31:00,
2013-05-12 07:36:00,44.4,40.8,29.28,WSW,248,6.9,13.7,87,0.00,CLR,,0.02,WeatherDisplay:10.37,2013-05-12 06:36:00,
2013-05-12 07:41:00,44.8,41.1,29.28,SSW,202,11.5,11.5,87,0.00,CLR,,0.02,WeatherDisplay:10.37,2013-05-12 06:41:00,
2013-05-12 07:46:00,45.0,41.0,29.28,WSW,248,10.4,10.4,86,0.00,CLR,,0.02,WeatherDisplay:10.37,2013-05-12 06:46:00,
2013-05-12 07:51:00,45.0,41.0,29.28,WSW,248,2.3,10.3,86,0.00,CLR,,0.02,WeatherDisplay:10.37,2013-05-12 06:51:00,
2013-05-12 07:56:00,45.5,41.6,29.28,WSW,248,9.2,9.2,86,0.00,CLR,,0.02,WeatherDisplay:10.37,2013-05-12 06:56:00,
2013-05-12 08:01:00,45.7,41.4,29.28,SW,225,3.5,5.7,85,0.00,CLR,,0.02,WeatherDisplay:10.37,2013-05-12 07:01:00,
2013-05-12 08:06:00,45.7,41.7,29.28,WSW,248,12.7,12.7,86,0.00,CLR,,0.02,WeatherDisplay:10.37,2013-05-12 07:06:00,
2013-05-12 08:11:00,45.7,41.1,29.28,WSW,248,13.8,13.8,84,0.00,CLR,,0.02,WeatherDisplay:10.37,2013-05-12 07:11:00,
2013-05-12 08:16:00,45.5,40.9,29.28,West,270,16.1,16.1,84,0.00,CLR,,0.02,WeatherDisplay:10.37,2013-05-12 07:16:00,
2013-05-12 08:21:00,45.3,40.8,29.28,South,180,1.2,9.1,84,0.00,CLR,,0.02,WeatherDisplay:10.37,2013-05-12 07:21:00,
2013-05-12 08:26:00,45.5,40.9,29.28,SW,225,5.8,5.8,84,0.00,CLR,,0.02,WeatherDisplay:10.37,2013-05-12 07:26:00,
2013-05-12 08:31:00,45.3,40.8,29.28,West,270,10.4,10.4,84,0.00,CLR,,0.02,WeatherDisplay:10.37,2013-05-12 07:31:00,
2013-05-12 08:36:00,45.5,40.9,29.27,SSW,202,4.6,4.6,84,0.00,CLR,,0.02,WeatherDisplay:10.37,2013-05-12 07:36:00,
2013-05-12 08:41:00,45.5,40.9,29.27,SSW,202,1.2,3.1,84,0.00,CLR,,0.02,WeatherDisplay:10.37,2013-05-12 07:41:00,
2013-05-12 08:46:00,45.9,41.3,29.27,SSW,202,8.1,8.1,84,0.00,CLR,,0.02,WeatherDisplay:10.37,2013-05-12 07:46:00,
2013-05-12 08:51:00,45.7,41.1,29.27,SE,135,2.3,5.0,84,0.00,CLR,,0.02,WeatherDisplay:10.37,2013-05-12 07:51:00,
2013-05-12 08:56:00,46.0,41.2,29.27,SW,225,10.4,10.4,83,0.00,CLR,,0.02,WeatherDisplay:10.37,2013-05-12 07:56:00,
2013-05-12 09:01:00,46.2,41.3,29.27,SW,225,8.1,8.1,83,0.00,CLR,,0.02,WeatherDisplay:10.37,2013-05-12 08:01:00,
2013-05-12 09:06:00,46.2,41.3,29.27,SSW,202,11.5,11.5,83,0.00,CLR,,0.02,WeatherDisplay:10.37,2013-05-12 08:06:00,
2013-05-12 09:11:00,46.2,41.3,29.26,SW,225,12.7,12.7,83,0.00,CLR,,0.02,WeatherDisplay:10.37,2013-05-12 08:11:00,
2013-05-12 09:16:00,46.0,41.2,29.27,SW,225,12.7,12.7,83,0.00,CLR,,0.02,WeatherDisplay:10.37,2013-05-12 08:16:00,
2013-05-12 09:21:00,46.0,41.2,29.27,SW,225,12.7,12.7,83,0.00,CLR,,0.02,WeatherDisplay:10.37,2013-05-12 08:21:00,
2013-05-12 09:26:00,46.0,41.2,29.27,SW,225,15.0,15.0,83,0.00,CLR,,0.02,WeatherDisplay:10.37,2013-05-12 08:26:00,
2013-05-12 09:31:00,46.0,41.2,29.27,West,270,16.1,16.1,83,0.00,CLR,,0.02,WeatherDisplay:10.37,2013-05-12 08:31:00,
2013-05-12 09:36:00,46.0,41.2,29.26,SW,225,16.1,16.1,83,0.00,CLR,,0.02,WeatherDisplay:10.37,2013-05-12 08:36:00,
2013-05-12 09:41:00,46.0,41.2,29.26,WSW,248,11.5,11.5,83,0.00,CLR,,0.02,WeatherDisplay:10.37,2013-05-12 08:41:00,
2013-05-12 09:46:00,46.0,41.2,29.27,WSW,248,5.8,5.8,83,0.00,CLR,,0.02,WeatherDisplay:10.37,2013-05-12 08:46:00,
2013-05-12 09:51:00,45.7,40.5,29.27,WSW,248,13.8,13.8,82,0.00,CLR,,0.02,WeatherDisplay:10.37,2013-05-12 08:51:00,
2013-05-12 09:56:00,45.3,40.1,29.26,SW,225,15.0,15.0,82,0.00,CLR,,0.02,WeatherDisplay:10.37,2013-05-12 08:56:00,
2013-05-12 10:01:00,45.1,40.0,29.26,NW,315,6.9,6.9,82,0.00,CLR,,0.02,WeatherDisplay:10.37,2013-05-12 09:01:00,
2013-05-12 10:06:00,45.1,40.3,29.27,WSW,248,9.2,9.2,83,0.00,CLR,,0.02,WeatherDisplay:10.37,2013-05-12 09:06:00,
2013-05-12 10:11:00,45.1,40.3,29.27,SE,135,4.6,4.6,83,0.00,CLR,,0.02,WeatherDisplay:10.37,2013-05-12 09:11:00,
2013-05-12 10:16:00,45.1,40.3,29.27,West,270,12.7,12.7,83,0.00,CLR,,0.02,WeatherDisplay:10.37,2013-05-12 09:16:00,
2013-05-12 10:21:00,45.3,40.5,29.27,SW,225,6.9,12.0,83,0.00,CLR,,0.02,WeatherDisplay:10.37,2013-05-12 09:21:00,
2013-05-12 10:26:00,45.1,40.3,29.27,SE,135,10.4,10.4,83,0.00,CLR,,0.02,WeatherDisplay:10.37,2013-05-12 09:26:00,
2013-05-12 10:31:00,45.1,40.3,29.27,SSW,202,8.1,8.3,83,0.00,CLR,,0.02,WeatherDisplay:10.37,2013-05-12 09:31:00,
2013-05-12 10:36:00,45.1,40.6,29.26,SSW,202,11.5,11.5,84,0.00,CLR,,0.02,WeatherDisplay:10.37,2013-05-12 09:36:00,
2013-05-12 10:41:00,44.8,40.2,29.26,SSW,202,15.0,15.0,84,0.00,CLR,,0.02,WeatherDisplay:10.37,2013-05-12 09:41:00,
2013-05-12 10:46:00,44.4,39.9,29.26,South,180,11.5,11.5,84,0.02,RA,,0.04,WeatherDisplay:10.37,2013-05-12 09:46:00,
2013-05-12 10:51:00,44.2,39.7,29.26,SW,225,16.1,16.1,84,0.02,RA,,0.04,WeatherDisplay:10.37,2013-05-12 09:51:00,
2013-05-12 10:56:00,44.2,39.7,29.25,SSW,202,6.9,6.9,84,0.02,CLR,,0.04,WeatherDisplay:10.37,2013-05-12 09:56:00,
2013-05-12 11:01:00,44.2,39.7,29.25,NW,315,3.5,3.5,84,0.02,CLR,,0.04,WeatherDisplay:10.37,2013-05-12 10:01:00,
2013-05-12 11:06:00,44.4,40.2,29.25,WSW,248,10.4,10.4,85,0.04,RA,,0.06,WeatherDisplay:10.37,2013-05-12 10:06:00,
2013-05-12 11:11:00,44.4,40.2,29.25,WSW,248,3.5,10.9,85,0.04,RA,,0.06,WeatherDisplay:10.37,2013-05-12 10:11:00,
2013-05-12 11:16:00,44.6,40.4,29.25,SW,225,8.1,8.1,85,0.04,,,0.06,WeatherDisplay:10.37,2013-05-12 10:16:00,
2013-05-12 11:21:00,44.6,40.4,29.25,WSW,248,10.4,10.4,85,0.06,RA,,0.08,WeatherDisplay:10.37,2013-05-12 10:21:00,
2013-05-12 11:26:00,44.8,40.2,29.25,SSW,202,10.4,10.4,84,0.06,RA,,0.08,WeatherDisplay:10.37,2013-05-12 10:26:00,
2013-05-12 11:31:00,45.0,40.7,29.25,SSW,202,12.7,12.7,85,0.06,CLR,,0.08,WeatherDisplay:10.37,2013-05-12 10:31:00,
2013-05-12 11:36:00,45.1,40.9,29.24,South,180,9.2,9.2,85,0.06,CLR,,0.08,WeatherDisplay:10.37,2013-05-12 10:36:00,
2013-05-12 11:41:00,45.5,41.3,29.24,SSW,202,4.6,11.1,85,0.06,CLR,,0.08,WeatherDisplay:10.37,2013-05-12 10:41:00,
2013-05-12 11:46:00,46.0,41.8,29.24,SSW,202,12.7,12.7,85,0.04,CLR,,0.08,WeatherDisplay:10.37,2013-05-12 10:46:00,
2013-05-12 11:51:00,46.6,42.3,29.24,WSW,248,5.8,13.2,85,0.04,CLR,,0.08,WeatherDisplay:10.37,2013-05-12 10:51:00,
2013-05-12 11:56:00,46.9,42.7,29.23,SSW,202,8.1,8.1,85,0.04,CLR,,0.08,WeatherDisplay:10.37,2013-05-12 10:56:00,
2013-05-12 12:01:00,47.1,42.8,29.23,SW,225,8.1,8.1,85,0.04,CLR,,0.08,WeatherDisplay:10.37,2013-05-12 11:01:00,
2013-05-12 12:06:00,47.3,43.0,29.22,SW,225,6.9,6.9,85,0.02,CLR,,0.08,WeatherDisplay:10.37,2013-05-12 11:06:00,
2013-05-12 12:11:00,47.5,42.9,29.22,South,180,8.1,8.9,84,0.02,CLR,,0.08,WeatherDisplay:10.37,2013-05-12 11:11:00,
2013-05-12 12:16:00,47.7,43.1,29.22,SSE,158,11.5,11.5,84,0.02,CLR,,0.08,WeatherDisplay:10.37,2013-05-12 11:16:00,
2013-05-12 12:21:00,47.8,43.2,29.21,South,180,15.0,15.0,84,0.00,CLR,,0.08,WeatherDisplay:10.37,2013-05-12 11:21:00,
2013-05-12 12:26:00,47.5,42.9,29.21,South,180,12.7,12.7,84,0.00,CLR,,0.08,WeatherDisplay:10.37,2013-05-12 11:26:00,
2013-05-12 12:31:00,47.5,42.9,29.21,SSW,202,11.5,11.5,84,0.00,CLR,,0.08,WeatherDisplay:10.37,2013-05-12 11:31:00,
2013-05-12 12:36:00,47.7,43.1,29.20,South,180,8.1,8.1,84,0.00,CLR,,0.08,WeatherDisplay:10.37,2013-05-12 11:36:00,
2013-05-12 12:41:00,47.7,43.1,29.20,South,180,4.6,7.8,84,0.00,CLR,,0.08,WeatherDisplay:10.37,2013-05-12 11:41:00,
2013-05-12 12:46:00,47.7,43.1,29.20,SSW,202,11.5,11.5,84,0.00,CLR,,0.08,WeatherDisplay:10.37,2013-05-12 11:46:00,
2013-05-12 12:51:00,47.7,43.1,29.20,SSW,202,4.6,7.6,84,0.00,CLR,,0.08,WeatherDisplay:10.37,2013-05-12 11:51:00,
2013-05-12 12:56:00,47.7,43.4,29.19,South,180,9.2,9.2,85,0.02,RA,,0.10,WeatherDisplay:10.37,2013-05-12 11:56:00,
2013-05-12 13:01:00,47.5,43.2,29.19,South,180,11.5,11.5,85,0.02,RA,,0.10,WeatherDisplay:10.37,2013-05-12 12:01:00,
2013-05-12 13:06:00,47.1,42.8,29.18,SSE,158,11.5,11.5,85,0.02,,,0.10,WeatherDisplay:10.37,2013-05-12 12:06:00,
2013-05-12 13:11:00,46.9,42.7,29.18,South,180,4.6,6.4,85,0.02,CLR,,0.10,WeatherDisplay:10.37,2013-05-12 12:11:00,
2013-05-12 13:16:00,46.8,42.5,29.18,South,180,9.2,9.2,85,0.02,CLR,,0.10,WeatherDisplay:10.37,2013-05-12 12:16:00,
2013-05-12 13:21:00,46.6,42.3,29.18,SW,225,8.1,8.1,85,0.02,CLR,,0.10,WeatherDisplay:10.37,2013-05-12 12:21:00,
2013-05-12 13:26:00,46.6,42.6,29.17,SSE,158,8.1,8.1,86,0.02,CLR,,0.10,WeatherDisplay:10.37,2013-05-12 12:26:00,
2013-05-12 13:31:00,46.8,42.8,29.17,SSW,202,15.0,16.4,86,0.04,RA,,0.12,WeatherDisplay:10.37,2013-05-12 12:31:00,
2013-05-12 13:36:00,46.9,43.0,29.17,SSW,202,13.8,13.9,86,0.04,RA,,0.12,WeatherDisplay:10.37,2013-05-12 12:36:00,
2013-05-12 13:41:00,47.1,43.1,29.17,SSE,158,11.5,11.5,86,0.04,CLR,,0.12,WeatherDisplay:10.37,2013-05-12 12:41:00,
2013-05-12 13:46:00,47.1,43.1,29.17,SSE,158,9.2,9.2,86,0.04,CLR,,0.12,WeatherDisplay:10.37,2013-05-12 12:46:00,
2013-05-12 13:51:00,47.1,43.4,29.16,South,180,10.4,12.9,87,0.04,CLR,,0.12,WeatherDisplay:10.37,2013-05-12 12:51:00,
2013-05-12 13:56:00,47.3,43.6,29.16,SSE,158,9.2,9.9,87,0.02,CLR,,0.12,WeatherDisplay:10.37,2013-05-12 12:56:00,
2013-05-12 14:01:00,47.3,43.6,29.16,SSE,158,8.1,9.1,87,0.02,CLR,,0.12,WeatherDisplay:10.37,2013-05-12 13:01:00,
2013-05-12 14:06:00,47.5,43.8,29.16,South,180,16.1,16.1,87,0.02,CLR,,0.12,WeatherDisplay:10.37,2013-05-12 13:06:00,
2013-05-12 14:11:00,47.5,43.8,29.16,South,180,9.2,10.4,87,0.02,CLR,,0.12,WeatherDisplay:10.37,2013-05-12 13:11:00,
2013-05-12 14:16:00,47.5,44.1,29.15,SE,135,13.8,13.8,88,0.02,CLR,,0.12,WeatherDisplay:10.37,2013-05-12 13:16:00,
2013-05-12 14:21:00,47.5,44.1,29.14,WSW,248,17.3,17.3,88,0.02,CLR,,0.12,WeatherDisplay:10.37,2013-05-12 13:21:00,
2013-05-12 14:26:00,47.3,43.9,29.14,SE,135,20.7,20.7,88,0.02,CLR,,0.12,WeatherDisplay:10.37,2013-05-12 13:26:00,
2013-05-12 14:31:00,47.1,43.7,29.14,South,180,11.5,14.3,88,0.00,CLR,,0.12,WeatherDisplay:10.37,2013-05-12 13:31:00,
2013-05-12 14:36:00,47.1,43.7,29.13,SSE,158,13.8,13.8,88,0.00,CLR,,0.12,WeatherDisplay:10.37,2013-05-12 13:36:00,
2013-05-12 14:41:00,47.1,44.0,29.14,SSE,158,13.8,13.8,89,0.00,CLR,,0.12,WeatherDisplay:10.37,2013-05-12 13:41:00,
2013-05-12 14:46:00,47.1,44.0,29.14,WSW,248,8.1,8.1,89,0.00,CLR,,0.12,WeatherDisplay:10.37,2013-05-12 13:46:00,
2013-05-12 14:51:00,47.1,44.0,29.13,SW,225,15.0,15.0,89,0.02,RA,,0.14,WeatherDisplay:10.37,2013-05-12 13:51:00,
2013-05-12 14:56:00,47.1,44.0,29.13,SE,135,9.2,9.2,89,0.02,RA,,0.14,WeatherDisplay:10.37,2013-05-12 13:56:00,
2013-05-12 15:01:00,47.1,44.0,29.13,SSE,158,5.8,7.3,89,0.02,,,0.14,WeatherDisplay:10.37,2013-05-12 14:01:00,
2013-05-12 15:06:00,47.3,44.2,29.13,South,180,8.1,8.1,89,0.02,CLR,,0.14,WeatherDisplay:10.37,2013-05-12 14:06:00,
2013-05-12 15:11:00,47.5,44.7,29.13,SSE,158,5.8,5.8,90,0.02,CLR,,0.14,WeatherDisplay:10.37,2013-05-12 14:11:00,
2013-05-12 15:16:00,47.7,44.9,29.13,SSW,202,10.4,10.4,90,0.02,CLR,,0.14,WeatherDisplay:10.37,2013-05-12 14:16:00,
2013-05-12 15:21:00,47.7,44.9,29.12,SW,225,4.6,7.6,90,0.02,CLR,,0.14,WeatherDisplay:10.37,2013-05-12 14:21:00,
2013-05-12 15:26:00,47.8,45.0,29.12,SSW,202,6.9,6.9,90,0.02,CLR,,0.14,WeatherDisplay:10.37,2013-05-12 14:26:00,
2013-05-12 15:31:00,47.8,45.0,29.12,SSW,202,5.8,9.6,90,0.02,CLR,,0.14,WeatherDisplay:10.37,2013-05-12 14:31:00,
2013-05-12 15:36:00,48.0,45.5,29.12,SSE,158,3.5,4.0,91,0.02,CLR,,0.14,WeatherDisplay:10.37,2013-05-12 14:36:00,
2013-05-12 15:41:00,48.0,45.5,29.12,SE,135,6.9,8.5,91,0.02,CLR,,0.14,WeatherDisplay:10.37,2013-05-12 14:41:00,
2013-05-12 15:46:00,48.0,45.5,29.12,SW,225,10.4,10.4,91,0.02,CLR,,0.14,WeatherDisplay:10.37,2013-05-12 14:46:00,
2013-05-12 15:51:00,48.0,45.5,29.12,SSW,202,9.2,9.2,91,0.00,CLR,,0.14,WeatherDisplay:10.37,2013-05-12 14:51:00,
2013-05-12 15:56:00,48.0,45.5,29.12,WSW,248,8.1,8.1,91,0.00,CLR,,0.14,WeatherDisplay:10.37,2013-05-12 14:56:00,
2013-05-12 16:01:00,48.0,45.8,29.12,SSW,202,8.1,8.1,92,0.00,CLR,,0.14,WeatherDisplay:10.37,2013-05-12 15:01:00,
2013-05-12 16:06:00,48.0,45.8,29.12,SSW,202,17.3,17.3,92,0.00,CLR,,0.14,WeatherDisplay:10.37,2013-05-12 15:06:00,
2013-05-12 16:11:00,48.4,46.2,29.12,WNW,292,8.1,8.1,92,0.00,CLR,,0.14,WeatherDisplay:10.37,2013-05-12 15:11:00,
2013-05-12 16:16:00,48.2,46.0,29.11,East,90,6.9,6.9,92,0.00,CLR,,0.14,WeatherDisplay:10.37,2013-05-12 15:16:00,
2013-05-12 16:21:00,48.4,46.2,29.10,SW,225,8.1,8.1,92,0.00,CLR,,0.14,WeatherDisplay:10.37,2013-05-12 15:21:00,
2013-05-12 16:26:00,48.4,46.2,29.10,West,270,11.5,11.5,92,0.00,CLR,,0.14,WeatherDisplay:10.37,2013-05-12 15:26:00,
2013-05-12 16:31:00,48.4,46.2,29.11,SW,225,12.7,12.7,92,0.00,CLR,,0.14,WeatherDisplay:10.37,2013-05-12 15:31:00,
2013-05-12 16:36:00,48.6,46.3,29.10,SW,225,9.2,9.2,92,0.00,CLR,,0.14,WeatherDisplay:10.37,2013-05-12 15:36:00,
2013-05-12 16:41:00,48.6,46.3,29.10,SW,225,10.4,11.1,92,0.00,CLR,,0.14,WeatherDisplay:10.37,2013-05-12 15:41:00,
2013-05-12 16:48:00,48.6,46.1,29.10,West,270,3.5,3.5,91,0.00,CLR,,0.14,WeatherDisplay:10.37,2013-05-12 15:48:00,
2013-05-12 16:53:00,48.4,45.9,29.10,SSW,202,6.9,11.3,91,0.00,RA,,0.14,WeatherDisplay:10.37,2013-05-12 15:53:00,
2013-05-12 16:58:00,48.4,45.9,29.10,SW,225,13.8,13.8,91,0.00,RA,,0.14,WeatherDisplay:10.37,2013-05-12 15:58:00,
2013-05-12 17:03:00,48.4,45.6,29.10,WSW,248,8.1,8.1,90,0.00,CLR,,0.14,WeatherDisplay:10.37,2013-05-12 16:03:00,
2013-05-12 17:08:00,48.4,45.6,29.10,WSW,248,18.4,18.4,90,0.00,CLR,,0.14,WeatherDisplay:10.37,2013-05-12 16:08:00,
2013-05-12 17:13:00,48.2,45.4,29.10,SW,225,11.5,11.6,90,0.00,CLR,,0.14,WeatherDisplay:10.37,2013-05-12 16:13:00,
2013-05-12 17:18:00,48.0,45.2,29.10,West,270,12.7,12.7,90,0.00,CLR,,0.14,WeatherDisplay:10.37,2013-05-12 16:18:00,
2013-05-12 17:23:00,48.2,45.4,29.10,SW,225,16.1,16.1,90,0.00,CLR,,0.14,WeatherDisplay:10.37,2013-05-12 16:23:00,
2013-05-12 17:28:00,48.0,45.2,29.09,SW,225,16.1,16.1,90,0.00,CLR,,0.14,WeatherDisplay:10.37,2013-05-12 16:28:00,
2013-05-12 17:33:00,48.0,45.2,29.09,SW,225,12.1,12.1,90,0.00,CLR,,0.14,WeatherDisplay:10.37,2013-05-12 16:33:00,
2013-05-12 17:38:00,48.0,45.2,29.09,SW,225,8.1,8.1,90,0.00,CLR,,0.14,WeatherDisplay:10.37,2013-05-12 16:38:00,
2013-05-12 17:43:00,48.0,45.2,29.09,WSW,248,14.5,14.5,90,0.00,CLR,,0.14,WeatherDisplay:10.37,2013-05-12 16:43:00,
2013-05-12 17:48:00,48.0,45.2,29.09,WSW,248,9.2,9.2,90,0.00,CLR,,0.14,WeatherDisplay:10.37,2013-05-12 16:48:00,
2013-05-12 17:53:00,48.0,45.2,29.10,SW,225,10.4,10.4,90,0.00,CLR,,0.14,WeatherDisplay:10.37,2013-05-12 16:53:00,
2013-05-12 17:58:00,48.0,45.2,29.10,SW,225,11.5,11.5,90,0.00,CLR,,0.14,WeatherDisplay:10.37,2013-05-12 16:58:00,
2013-05-12 18:03:00,48.0,45.2,29.09,SSW,202,17.9,17.9,90,0.00,CLR,,0.14,WeatherDisplay:10.37,2013-05-12 17:03:00,
2013-05-12 18:08:00,48.2,45.4,29.09,South,180,5.8,6.3,90,0.00,CLR,,0.14,WeatherDisplay:10.37,2013-05-12 17:08:00,
2013-05-12 18:13:00,48.4,45.3,29.09,West,270,17.3,17.3,89,0.00,CLR,,0.14,WeatherDisplay:10.37,2013-05-12 17:13:00,
2013-05-12 18:18:00,48.4,45.3,29.09,WSW,248,8.1,8.1,89,0.00,CLR,,0.14,WeatherDisplay:10.37,2013-05-12 17:18:00,
2013-05-12 18:23:00,48.4,45.3,29.09,WSW,248,11.5,11.6,89,0.00,CLR,,0.14,WeatherDisplay:10.37,2013-05-12 17:23:00,
2013-05-12 18:28:00,48.2,45.1,29.09,SW,225,8.1,8.1,89,0.00,CLR,,0.14,WeatherDisplay:10.37,2013-05-12 17:28:00,
2013-05-12 18:33:00,48.2,45.1,29.09,WSW,248,10.4,10.4,89,0.00,CLR,,0.14,WeatherDisplay:10.37,2013-05-12 17:33:00,
2013-05-12 18:38:00,48.2,45.1,29.09,WSW,248,21.9,21.9,89,0.00,CLR,,0.14,WeatherDisplay:10.37,2013-05-12 17:38:00,
2013-05-12 18:43:00,48.2,45.1,29.08,SSW,202,11.5,11.5,89,0.00,CLR,,0.14,WeatherDisplay:10.37,2013-05-12 17:43:00,
2013-05-12 18:48:00,48.4,45.3,29.08,WSW,248,19.6,19.6,89,0.00,CLR,,0.14,WeatherDisplay:10.37,2013-05-12 17:48:00,
2013-05-12 18:53:00,48.4,45.0,29.08,WSW,248,10.5,10.5,88,0.00,CLR,,0.14,WeatherDisplay:10.37,2013-05-12 17:53:00,
2013-05-12 18:58:00,48.4,44.7,29.08,SE,135,16.1,16.1,87,0.00,CLR,,0.14,WeatherDisplay:10.37,2013-05-12 17:58:00,
2013-05-12 19:03:00,48.4,44.7,29.08,SW,225,13.8,13.8,87,0.00,CLR,,0.14,WeatherDisplay:10.37,2013-05-12 18:03:00,
2013-05-12 19:08:00,48.2,44.5,29.08,WSW,248,10.4,10.4,87,0.00,CLR,,0.14,WeatherDisplay:10.37,2013-05-12 18:08:00,
2013-05-12 19:13:00,48.4,44.7,29.08,West,270,11.5,11.5,87,0.00,CLR,,0.14,WeatherDisplay:10.37,2013-05-12 18:13:00,
2013-05-12 19:18:00,48.4,44.7,29.08,WSW,248,12.7,12.7,87,0.00,CLR,,0.14,WeatherDisplay:10.37,2013-05-12 18:18:00,
2013-05-12 19:23:00,48.0,44.3,29.08,WSW,248,8.1,8.1,87,0.00,CLR,,0.14,WeatherDisplay:10.37,2013-05-12 18:23:00,
2013-05-12 19:28:00,48.0,44.3,29.08,WSW,248,6.9,15.2,87,0.00,CLR,,0.14,WeatherDisplay:10.37,2013-05-12 18:28:00,
2013-05-12 19:33:00,48.0,44.3,29.07,East,90,6.0,6.0,87,0.00,CLR,,0.14,WeatherDisplay:10.37,2013-05-12 18:33:00,
2013-05-12 19:38:00,47.8,44.2,29.08,WNW,292,10.4,10.4,87,0.00,CLR,,0.14,WeatherDisplay:10.37,2013-05-12 18:38:00,
2013-05-12 19:43:00,47.8,44.2,29.08,WSW,248,10.4,10.6,87,0.00,CLR,,0.14,WeatherDisplay:10.37,2013-05-12 18:43:00,
2013-05-12 19:48:00,47.5,43.8,29.07,SSW,202,16.1,16.1,87,0.00,CLR,,0.14,WeatherDisplay:10.37,2013-05-12 18:48:00,
2013-05-12 19:53:00,47.1,43.4,29.07,SSW,202,9.6,9.6,87,0.00,CLR,,0.14,WeatherDisplay:10.37,2013-05-12 18:53:00,
2013-05-12 19:58:00,47.1,43.4,29.08,West,270,23.0,23.0,87,0.00,CLR,,0.14,WeatherDisplay:10.37,2013-05-12 18:58:00,
2013-05-12 20:03:00,46.9,43.3,29.08,WSW,248,8.1,9.8,87,0.00,CLR,,0.14,WeatherDisplay:10.37,2013-05-12 19:03:00,
2013-05-12 20:08:00,46.8,43.1,29.08,WSW,248,16.1,16.1,87,0.00,CLR,,0.14,WeatherDisplay:10.37,2013-05-12 19:08:00,
2013-05-12 20:13:00,46.6,42.9,29.08,SE,135,11.5,12.1,87,0.00,CLR,,0.14,WeatherDisplay:10.37,2013-05-12 19:13:00,
2013-05-12 20:18:00,46.2,42.9,29.08,SW,225,9.2,9.2,88,0.00,CLR,,0.14,WeatherDisplay:10.37,2013-05-12 19:18:00,
2013-05-12 20:23:00,46.0,42.7,29.08,South,180,5.8,5.8,88,0.00,CLR,,0.14,WeatherDisplay:10.37,2013-05-12 19:23:00,
2013-05-12 20:28:00,46.0,42.7,29.09,South,180,11.5,11.8,88,0.00,CLR,,0.14,WeatherDisplay:10.37,2013-05-12 19:28:00,
2013-05-12 20:33:00,45.9,42.5,29.09,SW,225,10.4,10.5,88,0.00,CLR,,0.14,WeatherDisplay:10.37,2013-05-12 19:33:00,
2013-05-12 20:38:00,45.7,42.3,29.10,West,270,10.4,10.4,88,0.00,CLR,,0.14,WeatherDisplay:10.37,2013-05-12 19:38:00,
2013-05-12 20:43:00,45.5,42.2,29.10,WSW,248,17.3,17.3,88,0.00,CLR,,0.14,WeatherDisplay:10.37,2013-05-12 19:43:00,
2013-05-12 20:48:00,45.3,42.0,29.10,SW,225,15.0,15.0,88,0.00,CLR,,0.14,WeatherDisplay:10.37,2013-05-12 19:48:00,
2013-05-12 20:53:00,45.1,41.8,29.10,West,270,5.8,8.4,88,0.00,CLR,,0.14,WeatherDisplay:10.37,2013-05-12 19:53:00,
2013-05-12 20:58:00,45.0,41.3,29.10,West,270,4.6,4.6,87,0.00,CLR,,0.14,WeatherDisplay:10.37,2013-05-12 19:58:00,
2013-05-12 21:03:00,44.8,41.1,29.10,WSW,248,6.9,7.3,87,0.00,CLR,,0.14,WeatherDisplay:10.37,2013-05-12 20:03:00,
2013-05-12 21:08:00,44.4,40.5,29.11,WSW,248,19.6,19.6,86,0.00,CLR,,0.14,WeatherDisplay:10.37,2013-05-12 20:08:00,
2013-05-12 21:13:00,44.4,40.2,29.11,WSW,248,13.2,13.2,85,0.00,CLR,,0.14,WeatherDisplay:10.37,2013-05-12 20:13:00,
2013-05-12 21:18:00,44.2,40.0,29.10,SW,225,16.1,16.1,85,0.00,CLR,,0.14,WeatherDisplay:10.37,2013-05-12 20:18:00,
2013-05-12 21:23:00,44.1,39.8,29.10,SW,225,6.9,6.9,85,0.00,CLR,,0.14,WeatherDisplay:10.37,2013-05-12 20:23:00,
2013-05-12 21:28:00,44.1,39.8,29.11,WSW,248,9.2,9.2,85,0.00,CLR,,0.14,WeatherDisplay:10.37,2013-05-12 20:28:00,
2013-05-12 21:33:00,43.9,39.7,29.11,SSE,158,15.0,15.4,85,0.00,CLR,,0.14,WeatherDisplay:10.37,2013-05-12 20:33:00,
2013-05-12 21:38:00,43.9,39.7,29.12,North,0,8.1,8.1,85,0.00,CLR,,0.14,WeatherDisplay:10.37,2013-05-12 20:38:00,
2013-05-12 21:43:00,43.9,39.7,29.11,WNW,292,18.8,18.8,85,0.00,CLR,,0.14,WeatherDisplay:10.37,2013-05-12 20:43:00,
2013-05-12 21:48:00,43.7,39.8,29.12,NW,315,8.1,16.4,86,0.00,CLR,,0.14,WeatherDisplay:10.37,2013-05-12 20:48:00,
2013-05-12 21:53:00,43.5,39.6,29.12,West,270,19.7,19.7,86,0.00,CLR,,0.14,WeatherDisplay:10.37,2013-05-12 20:53:00,
2013-05-12 21:58:00,43.5,39.3,29.12,SSW,202,12.7,12.7,85,0.00,CLR,,0.14,WeatherDisplay:10.37,2013-05-12 20:58:00,
2013-05-12 22:03:00,43.5,39.3,29.12,WSW,248,13.4,13.4,85,0.00,CLR,,0.14,WeatherDisplay:10.37,2013-05-12 21:03:00,
2013-05-12 22:08:00,43.2,39.0,29.12,SW,225,12.7,12.7,85,0.00,CLR,,0.14,WeatherDisplay:10.37,2013-05-12 21:08:00,
2013-05-12 22:13:00,43.2,39.0,29.12,SE,135,11.5,11.5,85,0.00,CLR,,0.14,WeatherDisplay:10.37,2013-05-12 21:13:00,
2013-05-12 22:18:00,43.0,38.5,29.12,South,180,9.2,9.2,84,0.00,CLR,,0.14,WeatherDisplay:10.37,2013-05-12 21:18:00,
2013-05-12 22:23:00,43.0,38.5,29.11,South,180,11.5,11.6,84,0.00,CLR,,0.14,WeatherDisplay:10.37,2013-05-12 21:23:00,
2013-05-12 22:28:00,42.6,37.5,29.11,SW,225,6.9,6.9,82,0.00,CLR,,0.14,WeatherDisplay:10.37,2013-05-12 21:28:00,
2013-05-12 22:33:00,42.4,37.3,29.12,WSW,248,8.1,8.1,82,0.00,CLR,,0.14,WeatherDisplay:10.37,2013-05-12 21:33:00,
2013-05-12 22:38:00,42.1,36.7,29.11,SSW,202,10.4,10.4,81,0.00,CLR,,0.14,WeatherDisplay:10.37,2013-05-12 21:38:00,
2013-05-12 22:43:00,42.1,36.7,29.11,WSW,248,15.0,15.0,81,0.00,CLR,,0.14,WeatherDisplay:10.37,2013-05-12 21:43:00,
2013-05-12 22:48:00,41.9,36.8,29.12,SSW,202,5.8,5.8,82,0.00,CLR,,0.14,WeatherDisplay:10.37,2013-05-12 21:48:00,
2013-05-12 22:53:00,41.7,36.6,29.12,South,180,10.4,18.9,82,0.00,CLR,,0.14,WeatherDisplay:10.37,2013-05-12 21:53:00,
2013-05-12 22:58:00,41.5,36.5,29.12,SW,225,6.9,6.9,82,0.00,CLR,,0.14,WeatherDisplay:10.37,2013-05-12 21:58:00,
2013-05-12 23:03:00,41.4,36.3,29.12,SSW,202,14.7,14.7,82,0.00,CLR,,0.14,WeatherDisplay:10.37,2013-05-12 22:03:00,
2013-05-12 23:08:00,41.2,36.4,29.12,WSW,248,10.4,10.4,83,0.00,CLR,,0.14,WeatherDisplay:10.37,2013-05-12 22:08:00,
2013-05-12 23:13:00,40.8,36.1,29.12,West,270,3.5,7.2,83,0.00,CLR,,0.14,WeatherDisplay:10.37,2013-05-12 22:13:00,
2013-05-12 23:18:00,40.8,36.1,29.12,South,180,6.9,6.9,83,0.00,CLR,,0.14,WeatherDisplay:10.37,2013-05-12 22:18:00,
2013-05-12 23:23:00,40.6,35.9,29.11,SW,225,5.8,6.2,83,0.00,CLR,,0.14,WeatherDisplay:10.37,2013-05-12 22:23:00,
2013-05-12 23:28:00,40.6,35.9,29.12,SSW,202,10.4,10.5,83,0.00,CLR,,0.14,WeatherDisplay:10.37,2013-05-12 22:28:00,
2013-05-12 23:33:00,40.5,36.0,29.11,WSW,248,8.1,9.9,84,0.00,CLR,,0.14,WeatherDisplay:10.37,2013-05-12 22:33:00,
2013-05-12 23:38:00,40.3,35.8,29.11,SSW,202,12.7,12.7,84,0.00,CLR,,0.14,WeatherDisplay:10.37,2013-05-12 22:38:00,
2013-05-12 23:43:00,40.3,35.8,29.12,SSW,202,11.5,11.5,84,0.00,CLR,,0.14,WeatherDisplay:10.37,2013-05-12 22:43:00,
2013-05-12 23:48:00,40.1,35.7,29.11,WSW,248,8.1,8.1,84,0.00,CLR,,0.14,WeatherDisplay:10.37,2013-05-12 22:48:00,
2013-05-12 23:53:00,40.1,35.7,29.11,WSW,248,9.2,10.4,84,0.00,CLR,,0.14,WeatherDisplay:10.37,2013-05-12 22:53:00,
2013-05-12 23:58:00,39.9,35.5,29.12,SSE,158,6.9,6.9,84,0.00,CLR,,0.14,WeatherDisplay:10.37,2013-05-12 22:58:00,